Terminal Aerodrome Forecast
Issued by NWS

Current Version | Previous Version | Text Only | Print | Product List | Glossary Off
Versions: 1 2 3 4 5 6 7 8 9 10 11 12 13 14 15 16 17 18 19 20 21 22 23 24 25 26 27 28 29 30

807
FTUS41 KPBZ 290520
TAFHLG
TAF
KHLG 290520Z 2906/3006 12006KT P6SM -TSRA OVC070CB
     FM290900 21004KT P6SM OVC050 WS020/23040KT
     FM291500 24009KT P6SM VCTS OVC040CB
     FM291800 24007KT 3SM TSRA OVC040CB
     FM292100 26006KT P6SM OVC200=

USA.gov is the U.S. government's official web portal to all federal, state and local government web resources and services.